createdAt,value
2023-07-26T00:01:13.737Z,17.28
2023-07-26T00:03:40.334Z,17.18
2023-07-26T00:06:07.233Z,17.05
2023-07-26T00:08:33.773Z,17.12
2023-07-26T00:11:00.268Z,17.29
2023-07-26T00:13:26.777Z,17.20
2023-07-26T00:15:53.335Z,17.01
2023-07-26T00:18:19.846Z,17.42
2023-07-26T00:20:46.405Z,17.47
2023-07-26T00:23:12.929Z,17.62
2023-07-26T00:25:39.546Z,17.67
2023-07-26T00:28:06.067Z,18.26
2023-07-26T00:30:32.651Z,17.12
2023-07-26T00:32:59.281Z,16.74
2023-07-26T00:35:26.915Z,16.75
2023-07-26T00:37:53.542Z,16.94
2023-07-26T00:40:20.166Z,17.01
2023-07-26T00:42:46.707Z,16.82
2023-07-26T00:45:13.220Z,16.97
2023-07-26T00:47:39.887Z,16.97
2023-07-26T00:50:06.777Z,16.82
2023-07-26T00:52:34.475Z,16.87
2023-07-26T00:55:03.842Z,16.95
2023-07-26T00:57:30.748Z,16.88
2023-07-26T00:59:57.912Z,17.10
2023-07-26T01:02:24.814Z,17.29
2023-07-26T01:04:52.459Z,17.20
2023-07-26T01:07:25.724Z,17.16
2023-07-26T01:09:52.162Z,17.21
2023-07-26T01:12:25.778Z,17.41
2023-07-26T01:14:55.019Z,17.55
2023-07-26T01:17:21.726Z,17.76
2023-07-26T01:19:48.318Z,17.63
2023-07-26T01:22:15.007Z,17.36
2023-07-26T01:24:41.594Z,17.30
2023-07-26T01:27:09.989Z,17.21
2023-07-26T01:29:36.557Z,17.26
2023-07-26T01:32:03.392Z,17.28
2023-07-26T01:34:30.297Z,17.42
2023-07-26T01:36:56.833Z,17.35
2023-07-26T01:39:24.157Z,17.13
2023-07-26T01:41:52.113Z,16.92
2023-07-26T01:44:18.676Z,16.96
2023-07-26T01:46:46.317Z,17.12
2023-07-26T01:49:13.792Z,17.03
2023-07-26T01:51:40.296Z,16.87
2023-07-26T01:54:09.353Z,16.74
2023-07-26T01:56:35.860Z,17.00
2023-07-26T01:59:02.432Z,17.30
2023-07-26T02:01:29.100Z,17.40
2023-07-26T02:03:55.702Z,17.32
2023-07-26T02:06:22.365Z,16.95
2023-07-26T02:08:48.871Z,16.91
2023-07-26T02:11:15.432Z,16.89
2023-07-26T02:13:41.970Z,16.86
2023-07-26T02:16:08.625Z,17.34
2023-07-26T02:18:35.208Z,17.10
2023-07-26T02:21:01.752Z,17.05
2023-07-26T02:23:28.411Z,17.03
2023-07-26T02:25:54.968Z,17.20
2023-07-26T02:28:21.544Z,16.99
2023-07-26T02:30:48.208Z,16.91
2023-07-26T02:33:14.737Z,16.96
2023-07-26T02:35:41.346Z,16.71
2023-07-26T02:38:07.844Z,16.82
2023-07-26T02:40:34.313Z,16.90
2023-07-26T02:43:00.814Z,16.93
2023-07-26T02:45:27.276Z,16.88
2023-07-26T02:47:53.822Z,16.92
2023-07-26T02:50:20.490Z,16.86
2023-07-26T02:52:47.494Z,16.97
2023-07-26T02:55:14.181Z,16.66
2023-07-26T02:57:40.775Z,16.91
2023-07-26T03:00:07.541Z,16.64
2023-07-26T03:02:34.110Z,16.76
2023-07-26T03:05:00.702Z,16.56
2023-07-26T03:07:27.602Z,16.78
2023-07-26T03:09:54.243Z,16.71
2023-07-26T03:12:21.183Z,16.91
2023-07-26T03:14:47.856Z,16.86
2023-07-26T03:17:22.098Z,16.87
2023-07-26T03:19:49.201Z,16.89
2023-07-26T03:22:16.764Z,17.05
2023-07-26T03:24:43.318Z,16.51
2023-07-26T03:27:10.105Z,16.28
2023-07-26T03:29:36.832Z,16.43
2023-07-26T03:32:03.500Z,16.27
2023-07-26T03:34:30.120Z,16.34
2023-07-26T03:36:56.769Z,16.36
2023-07-26T03:39:23.397Z,16.32
2023-07-26T03:41:50.014Z,16.36
2023-07-26T03:44:16.601Z,16.32
2023-07-26T03:46:43.362Z,16.33
2023-07-26T03:49:11.519Z,16.42
2023-07-26T03:51:38.148Z,16.33
2023-07-26T03:54:04.907Z,16.19
2023-07-26T03:56:31.656Z,16.20
2023-07-26T03:58:58.425Z,16.17
2023-07-26T04:01:24.994Z,16.21
2023-07-26T04:03:52.461Z,16.13
2023-07-26T04:06:19.003Z,16.11
2023-07-26T04:08:45.793Z,16.16
2023-07-26T04:11:12.506Z,16.10
2023-07-26T04:13:39.035Z,16.14
2023-07-26T04:16:15.903Z,16.07
2023-07-26T04:18:42.438Z,16.12
2023-07-26T04:21:11.349Z,16.27
2023-07-26T04:23:37.858Z,16.26
2023-07-26T04:26:04.364Z,16.27
2023-07-26T04:28:30.853Z,16.15
2023-07-26T04:30:57.461Z,16.10
2023-07-26T04:33:24.151Z,16.10
2023-07-26T04:35:52.498Z,16.15
2023-07-26T04:38:19.797Z,16.13
2023-07-26T04:40:49.032Z,16.09
2023-07-26T04:43:20.884Z,16.14
2023-07-26T04:45:48.593Z,16.25
2023-07-26T04:48:15.721Z,16.28
2023-07-26T04:50:42.622Z,16.27
2023-07-26T04:53:09.133Z,16.26
2023-07-26T04:55:45.819Z,16.18
2023-07-26T04:58:12.503Z,16.30
2023-07-26T05:00:40.224Z,16.28
2023-07-26T05:03:07.500Z,16.58
2023-07-26T05:05:34.564Z,16.36
2023-07-26T05:08:01.260Z,16.73
2023-07-26T05:10:27.842Z,16.57
2023-07-26T05:12:55.205Z,16.48
2023-07-26T05:15:21.855Z,16.37
2023-07-26T05:17:48.540Z,16.49
2023-07-26T05:20:15.048Z,16.42
2023-07-26T05:22:41.630Z,16.82
2023-07-26T05:25:08.429Z,16.75
2023-07-26T05:27:34.929Z,16.94
2023-07-26T05:30:01.609Z,16.91
2023-07-26T05:32:28.346Z,17.05
2023-07-26T05:34:55.740Z,17.09
2023-07-26T05:37:25.416Z,17.37
2023-07-26T05:39:52.787Z,17.45
2023-07-26T05:42:19.566Z,17.54
2023-07-26T05:44:46.229Z,17.54
2023-07-26T05:47:12.979Z,17.34
2023-07-26T05:49:43.670Z,17.50
2023-07-26T05:52:10.756Z,17.37
2023-07-26T05:54:37.443Z,17.42
2023-07-26T05:57:04.183Z,17.55
2023-07-26T05:59:30.769Z,17.51
2023-07-26T06:01:59.484Z,17.25
2023-07-26T06:04:26.264Z,17.23
2023-07-26T06:06:52.893Z,17.55
2023-07-26T06:09:22.150Z,17.45
2023-07-26T06:11:56.741Z,17.72
2023-07-26T06:14:25.955Z,17.73
2023-07-26T06:16:53.095Z,17.63
2023-07-26T06:19:19.716Z,17.68
2023-07-26T06:21:46.394Z,17.40
2023-07-26T06:24:13.095Z,17.44
2023-07-26T06:26:39.652Z,17.77
2023-07-26T06:29:06.138Z,17.81
2023-07-26T06:31:32.876Z,17.38
2023-07-26T06:33:59.760Z,17.48
2023-07-26T06:36:26.272Z,17.75
2023-07-26T06:38:52.854Z,17.71
2023-07-26T06:41:19.333Z,17.77
2023-07-26T06:43:45.827Z,17.70
2023-07-26T06:46:12.432Z,17.44
2023-07-26T06:48:38.941Z,17.39
2023-07-26T06:51:05.598Z,17.50
2023-07-26T06:53:32.175Z,17.62
2023-07-26T06:55:59.676Z,17.63
2023-07-26T06:58:26.415Z,17.61
2023-07-26T07:00:53.590Z,17.99
2023-07-26T07:03:20.188Z,18.35
2023-07-26T07:05:46.724Z,18.29
2023-07-26T07:08:13.376Z,18.34
2023-07-26T07:10:39.969Z,18.49
2023-07-26T07:13:06.487Z,18.21
2023-07-26T07:15:33.008Z,19.08
2023-07-26T07:18:14.086Z,19.39
2023-07-26T07:20:42.817Z,19.58
2023-07-26T07:23:10.428Z,20.45
2023-07-26T07:25:40.447Z,20.93
2023-07-26T07:28:07.188Z,20.88
2023-07-26T07:30:34.251Z,20.79
2023-07-26T07:33:00.923Z,21.00
2023-07-26T07:35:27.544Z,21.36
2023-07-26T07:37:54.281Z,21.71
2023-07-26T07:40:20.802Z,22.28
2023-07-26T07:42:47.300Z,23.86
2023-07-26T07:45:13.871Z,24.28
2023-07-26T07:47:40.447Z,25.29
2023-07-26T07:50:07.218Z,25.11
2023-07-26T07:52:33.989Z,25.68
2023-07-26T07:55:00.490Z,25.69
2023-07-26T07:57:27.100Z,26.31
2023-07-26T07:59:56.477Z,25.96
2023-07-26T08:02:24.372Z,26.11
2023-07-26T08:04:50.945Z,25.36
2023-07-26T08:07:17.485Z,25.09
2023-07-26T08:09:44.006Z,25.56
2023-07-26T08:12:10.648Z,25.90
2023-07-26T08:14:37.209Z,26.57
2023-07-26T08:17:03.932Z,27.46
2023-07-26T08:19:30.462Z,27.42
2023-07-26T08:21:57.096Z,27.60
2023-07-26T08:24:24.362Z,27.60
2023-07-26T08:26:52.812Z,27.46
2023-07-26T08:29:19.395Z,28.16
2023-07-26T08:31:45.927Z,27.29
2023-07-26T08:34:12.512Z,28.01
2023-07-26T08:36:39.101Z,28.74
2023-07-26T08:39:05.784Z,29.04
2023-07-26T08:41:32.592Z,28.54
2023-07-26T08:44:02.865Z,27.52
2023-07-26T08:46:29.865Z,25.02
2023-07-26T08:48:57.535Z,26.03
2023-07-26T08:51:24.308Z,27.12
2023-07-26T08:53:51.368Z,27.31
2023-07-26T08:56:19.068Z,27.74
2023-07-26T08:58:45.614Z,27.63
2023-07-26T09:01:12.372Z,26.22
2023-07-26T09:03:39.528Z,25.99
2023-07-26T09:06:07.637Z,26.01
2023-07-26T09:08:34.222Z,26.63
2023-07-26T09:11:02.672Z,27.49
2023-07-26T09:13:29.207Z,27.98
2023-07-26T09:15:55.726Z,27.07
2023-07-26T09:18:22.427Z,27.95
2023-07-26T09:21:00.191Z,27.50
2023-07-26T09:23:26.671Z,26.91
2023-07-26T09:25:53.231Z,25.87
2023-07-26T09:28:19.761Z,25.60
2023-07-26T09:30:52.397Z,25.21
2023-07-26T09:33:19.001Z,24.69
2023-07-26T09:35:50.774Z,25.04
2023-07-26T09:38:18.770Z,25.33
2023-07-26T09:40:45.668Z,25.03
2023-07-26T09:43:12.249Z,25.20
2023-07-26T09:45:41.882Z,24.47
2023-07-26T09:48:20.806Z,25.11
2023-07-26T09:50:52.951Z,24.83
2023-07-26T09:53:21.529Z,24.38
2023-07-26T09:55:59.957Z,24.82
2023-07-26T09:58:30.145Z,24.49
2023-07-26T10:01:01.023Z,24.11
2023-07-26T10:03:29.928Z,24.43
2023-07-26T10:05:57.751Z,23.06
2023-07-26T10:08:24.493Z,23.54
2023-07-26T10:10:53.665Z,23.67
2023-07-26T10:13:22.289Z,23.83
2023-07-26T10:15:51.349Z,24.31
2023-07-26T10:18:21.010Z,23.08
2023-07-26T10:20:48.689Z,23.44
2023-07-26T10:23:15.862Z,23.23
2023-07-26T10:25:42.945Z,23.40
2023-07-26T10:28:10.218Z,23.09
2023-07-26T10:30:38.184Z,22.96
2023-07-26T10:33:11.357Z,23.28
2023-07-26T10:35:37.915Z,23.13
2023-07-26T10:38:04.983Z,23.41
2023-07-26T10:40:35.699Z,23.79
2023-07-26T10:43:22.456Z,23.98
2023-07-26T10:45:50.069Z,24.33
2023-07-26T10:48:31.880Z,23.42
2023-07-26T10:50:58.773Z,24.31
2023-07-26T10:53:38.308Z,24.49
2023-07-26T10:56:08.998Z,24.23
2023-07-26T10:58:35.522Z,24.23
2023-07-26T11:01:03.615Z,24.12
2023-07-26T11:03:30.510Z,23.68
2023-07-26T11:05:57.777Z,23.76
2023-07-26T11:08:44.026Z,24.60
2023-07-26T11:11:10.652Z,25.16
2023-07-26T11:13:37.263Z,25.26
2023-07-26T11:16:15.040Z,25.14
2023-07-26T11:18:43.989Z,25.62
2023-07-26T11:21:17.518Z,25.31
2023-07-26T11:23:45.034Z,25.28
2023-07-26T11:26:11.648Z,25.30
2023-07-26T11:28:39.225Z,24.51
2023-07-26T11:31:06.969Z,23.88
2023-07-26T11:33:34.872Z,23.93
2023-07-26T11:36:02.396Z,23.95
2023-07-26T11:38:29.080Z,23.48
2023-07-26T11:40:57.506Z,23.32
2023-07-26T11:43:26.331Z,23.55
2023-07-26T11:45:53.412Z,23.30
2023-07-26T11:48:20.475Z,23.72
2023-07-26T11:50:47.369Z,23.79
2023-07-26T11:53:16.222Z,23.79
2023-07-26T11:55:51.609Z,23.73
2023-07-26T11:58:18.390Z,23.93
2023-07-26T12:00:48.190Z,24.19
2023-07-26T12:03:15.189Z,24.12
2023-07-26T12:05:43.897Z,24.16
2023-07-26T12:08:10.414Z,24.16
2023-07-26T12:10:38.566Z,24.32
2023-07-26T12:13:08.651Z,24.66
2023-07-26T12:15:54.877Z,24.58
2023-07-26T12:18:22.841Z,24.60
2023-07-26T12:21:02.795Z,24.50
2023-07-26T12:23:52.861Z,26.52
2023-07-26T12:26:20.740Z,27.47
2023-07-26T12:28:47.352Z,28.26
2023-07-26T12:31:17.911Z,27.68
2023-07-26T12:33:55.929Z,27.78
2023-07-26T12:36:23.280Z,26.97
2023-07-26T12:38:49.992Z,27.27
2023-07-26T12:41:16.497Z,27.97
2023-07-26T12:43:45.716Z,26.93
2023-07-26T12:46:14.525Z,28.40
2023-07-26T12:48:41.275Z,28.59
2023-07-26T12:51:07.839Z,28.82
2023-07-26T12:53:34.376Z,28.58
2023-07-26T12:56:01.001Z,29.11
2023-07-26T12:58:27.664Z,28.76
2023-07-26T13:00:54.955Z,28.10
2023-07-26T13:03:21.883Z,27.00
2023-07-26T13:05:50.777Z,26.80
2023-07-26T13:08:17.715Z,26.44
2023-07-26T13:10:44.331Z,26.71
2023-07-26T13:13:10.904Z,25.87
2023-07-26T13:15:37.418Z,25.82
2023-07-26T13:18:04.674Z,25.38
2023-07-26T13:20:32.109Z,25.46
2023-07-26T13:22:58.679Z,25.26
2023-07-26T13:25:25.238Z,25.90
2023-07-26T13:27:51.798Z,26.66
2023-07-26T13:30:18.336Z,27.67
2023-07-26T13:32:45.001Z,28.36
2023-07-26T13:35:11.761Z,29.09
2023-07-26T13:37:38.558Z,28.36
2023-07-26T13:40:07.243Z,28.35
2023-07-26T13:42:34.190Z,28.06
2023-07-26T13:45:02.496Z,28.27
2023-07-26T13:47:31.615Z,27.62
2023-07-26T13:49:58.739Z,27.16
2023-07-26T13:52:25.394Z,26.73
2023-07-26T13:54:51.998Z,26.70
2023-07-26T13:57:18.553Z,26.66
2023-07-26T13:59:45.055Z,27.16
2023-07-26T14:02:11.829Z,27.58
2023-07-26T14:04:38.458Z,28.63
2023-07-26T14:07:05.990Z,28.29
2023-07-26T14:09:32.929Z,28.81
2023-07-26T14:12:01.081Z,28.28
2023-07-26T14:14:27.931Z,28.16
2023-07-26T14:16:54.463Z,25.94
2023-07-26T14:19:21.049Z,26.02
2023-07-26T14:21:47.784Z,26.33
2023-07-26T14:24:14.372Z,26.88
2023-07-26T14:26:40.990Z,26.84
2023-07-26T14:29:07.578Z,27.61
2023-07-26T14:31:34.231Z,27.09
2023-07-26T14:34:00.765Z,26.88
2023-07-26T14:36:27.637Z,26.45
2023-07-26T14:38:54.192Z,25.43
2023-07-26T14:41:20.814Z,25.12
2023-07-26T14:43:47.949Z,25.71
2023-07-26T14:46:14.572Z,26.04
2023-07-26T14:48:41.603Z,26.12
2023-07-26T14:51:08.115Z,26.22
2023-07-26T14:53:34.672Z,26.56
2023-07-26T14:56:01.253Z,26.48
2023-07-26T14:58:27.734Z,26.74
2023-07-26T15:00:54.367Z,26.62
2023-07-26T15:03:21.064Z,26.38
2023-07-26T15:05:48.277Z,25.77
2023-07-26T15:08:15.167Z,25.06
2023-07-26T15:10:42.040Z,25.97
2023-07-26T15:13:08.696Z,26.40
2023-07-26T15:15:35.258Z,25.87
2023-07-26T15:18:03.064Z,25.94
2023-07-26T15:20:29.659Z,24.99
2023-07-26T15:22:56.207Z,24.27
2023-07-26T15:25:22.820Z,24.74
2023-07-26T15:27:49.417Z,25.23
2023-07-26T15:30:16.680Z,24.99
2023-07-26T15:32:43.934Z,25.12
2023-07-26T15:35:11.413Z,25.40
2023-07-26T15:37:40.653Z,25.25
2023-07-26T15:40:08.959Z,24.92
2023-07-26T15:42:35.714Z,24.63
2023-07-26T15:47:46.534Z,24.56
2023-07-26T15:50:15.103Z,24.82
2023-07-26T15:52:42.296Z,24.92
2023-07-26T15:55:09.173Z,24.08
2023-07-26T15:57:35.679Z,23.70
2023-07-26T16:00:02.292Z,24.06
2023-07-26T16:05:08.307Z,23.26
2023-07-26T16:08:10.742Z,23.31
2023-07-26T16:10:21.433Z,23.77
2023-07-26T16:12:47.908Z,23.65
2023-07-26T16:20:13.462Z,23.65
2023-07-26T16:22:39.969Z,23.42
2023-07-26T16:25:06.867Z,23.34
2023-07-26T16:27:33.443Z,23.39
2023-07-26T16:29:59.976Z,23.29
2023-07-26T16:32:26.565Z,23.48
2023-07-26T16:34:53.033Z,23.39
2023-07-26T16:37:19.549Z,23.03
2023-07-26T16:39:46.045Z,21.90
2023-07-26T16:42:12.581Z,22.57
2023-07-26T16:44:39.087Z,22.63
2023-07-26T16:47:09.410Z,22.54
2023-07-26T16:49:36.299Z,22.51
2023-07-26T16:52:03.038Z,22.25
2023-07-26T16:54:29.561Z,22.56
2023-07-26T16:56:56.060Z,22.49
2023-07-26T16:59:22.676Z,22.31
2023-07-26T17:01:49.249Z,22.24
2023-07-26T17:04:15.887Z,22.55
2023-07-26T17:06:42.925Z,22.22
2023-07-26T17:09:09.623Z,22.00
2023-07-26T17:11:36.213Z,21.91
2023-07-26T17:14:02.700Z,21.73
2023-07-26T17:16:29.450Z,21.16
2023-07-26T17:18:56.018Z,20.94
2023-07-26T17:21:24.534Z,21.00
2023-07-26T17:23:51.066Z,20.80
2023-07-26T17:26:17.582Z,20.53
2023-07-26T17:28:44.105Z,20.69
2023-07-26T17:31:10.649Z,20.72
2023-07-26T17:33:37.260Z,20.84
2023-07-26T17:36:10.642Z,20.64
2023-07-26T17:38:37.176Z,20.51
2023-07-26T17:41:07.176Z,19.68
2023-07-26T17:43:34.294Z,20.10
2023-07-26T17:46:00.906Z,20.17
2023-07-26T17:48:28.389Z,20.06
2023-07-26T17:50:55.330Z,20.03
2023-07-26T17:53:22.934Z,20.09
2023-07-26T17:55:49.563Z,20.19
2023-07-26T17:58:16.149Z,19.96
2023-07-26T18:00:42.697Z,19.15
2023-07-26T18:03:09.270Z,19.53
2023-07-26T18:05:35.820Z,19.83
2023-07-26T18:08:03.354Z,20.00
2023-07-26T18:10:29.995Z,19.81
2023-07-26T18:12:56.643Z,19.95
2023-07-26T18:15:23.190Z,19.98
2023-07-26T18:17:49.757Z,19.79
2023-07-26T18:20:16.373Z,19.43
2023-07-26T18:22:43.829Z,19.42
2023-07-26T18:25:10.891Z,19.41
2023-07-26T18:27:37.638Z,19.32
2023-07-26T18:30:04.374Z,19.66
2023-07-26T18:32:30.965Z,19.52
2023-07-26T18:34:57.686Z,19.53
2023-07-26T18:37:24.228Z,19.61
2023-07-26T18:39:50.797Z,19.66
2023-07-26T18:42:17.308Z,19.35
2023-07-26T18:44:43.874Z,18.93
2023-07-26T18:47:10.433Z,18.45
2023-07-26T18:49:38.081Z,18.55
2023-07-26T18:52:04.753Z,18.48
2023-07-26T18:54:31.777Z,18.42
2023-07-26T18:56:58.501Z,19.07
2023-07-26T18:59:25.211Z,19.18
2023-07-26T19:01:51.829Z,18.93
2023-07-26T19:04:19.910Z,18.81
2023-07-26T19:06:47.800Z,18.75
2023-07-26T19:09:14.319Z,18.73
2023-07-26T19:11:40.860Z,18.78
2023-07-26T19:14:07.368Z,18.55
2023-07-26T19:16:34.270Z,18.19
2023-07-26T19:19:01.417Z,17.86
2023-07-26T19:21:28.060Z,17.78
2023-07-26T19:23:54.951Z,17.54
2023-07-26T19:26:22.914Z,17.24
2023-07-26T19:28:49.822Z,17.53
2023-07-26T19:31:16.579Z,17.84
2023-07-26T19:33:44.282Z,17.85
2023-07-26T19:36:10.852Z,17.45
2023-07-26T19:38:38.226Z,17.59
2023-07-26T19:41:17.196Z,17.68
2023-07-26T19:43:44.150Z,17.40
2023-07-26T19:46:16.113Z,17.07
2023-07-26T19:48:52.413Z,17.16
2023-07-26T19:51:19.419Z,17.06
2023-07-26T19:53:46.549Z,17.04
2023-07-26T19:56:13.578Z,16.94
2023-07-26T19:58:40.132Z,17.11
2023-07-26T20:01:06.738Z,16.86
2023-07-26T20:03:33.939Z,17.02
2023-07-26T20:06:00.572Z,16.93
2023-07-26T20:08:27.213Z,16.98
2023-07-26T20:10:53.832Z,16.81
2023-07-26T20:13:20.535Z,16.22
2023-07-26T20:15:47.198Z,16.03
2023-07-26T20:18:14.554Z,15.85
2023-07-26T20:20:41.657Z,16.18
2023-07-26T20:23:08.239Z,16.24
2023-07-26T20:25:34.944Z,16.12
2023-07-26T20:28:01.539Z,15.78
2023-07-26T20:30:28.137Z,15.93
2023-07-26T20:32:54.794Z,15.82
2023-07-26T20:35:21.448Z,15.69
2023-07-26T20:37:48.018Z,15.39
2023-07-26T20:40:14.617Z,15.26
2023-07-26T20:42:41.143Z,15.19
2023-07-26T20:45:07.958Z,15.17
2023-07-26T20:47:34.559Z,15.38
2023-07-26T20:50:01.092Z,15.28
2023-07-26T20:52:27.769Z,15.22
2023-07-26T20:54:55.116Z,15.38
2023-07-26T20:57:21.664Z,15.39
2023-07-26T20:59:48.160Z,15.32
2023-07-26T21:02:14.712Z,15.61
2023-07-26T21:04:41.310Z,15.54
2023-07-26T21:07:07.907Z,15.46
2023-07-26T21:09:34.452Z,15.25
2023-07-26T21:12:01.150Z,15.28
2023-07-26T21:14:27.653Z,15.22
2023-07-26T21:16:54.241Z,15.10
2023-07-26T21:19:20.809Z,15.13
2023-07-26T21:21:47.286Z,15.25
2023-07-26T21:24:13.832Z,14.88
2023-07-26T21:26:40.425Z,14.84
2023-07-26T21:29:06.992Z,14.78
2023-07-26T21:31:33.522Z,14.81
2023-07-26T21:34:00.057Z,14.99
2023-07-26T21:36:26.549Z,15.05
2023-07-26T21:38:53.033Z,14.98
2023-07-26T21:41:19.798Z,14.99
2023-07-26T21:43:46.337Z,15.03
2023-07-26T21:46:12.959Z,15.01
2023-07-26T21:48:42.579Z,14.83
2023-07-26T21:51:09.091Z,14.76
2023-07-26T21:53:35.629Z,14.51
2023-07-26T21:56:03.433Z,14.63
2023-07-26T21:58:29.918Z,14.85
2023-07-26T22:00:56.420Z,14.82
2023-07-26T22:03:23.465Z,14.80
2023-07-26T22:05:50.509Z,14.89
2023-07-26T22:08:16.992Z,14.94
2023-07-26T22:10:43.536Z,15.05
2023-07-26T22:13:10.078Z,14.95
2023-07-26T22:15:36.591Z,14.69
2023-07-26T22:18:04.403Z,14.66
2023-07-26T22:20:31.004Z,14.58
2023-07-26T22:22:57.563Z,14.53
2023-07-26T22:25:24.047Z,14.78
2023-07-26T22:27:50.573Z,14.69
2023-07-26T22:30:17.121Z,14.70
2023-07-26T22:32:43.727Z,14.81
2023-07-26T22:35:10.747Z,14.57
2023-07-26T22:37:37.353Z,14.35
2023-07-26T22:40:03.931Z,14.35
2023-07-26T22:42:30.486Z,14.02
2023-07-26T22:44:57.062Z,14.10
2023-07-26T22:47:23.589Z,13.86
2023-07-26T22:49:54.075Z,13.95
2023-07-26T22:52:20.768Z,13.67
2023-07-26T22:54:47.657Z,13.65
2023-07-26T22:57:14.238Z,13.72
2023-07-26T22:59:44.594Z,13.71
2023-07-26T23:02:11.109Z,13.92
2023-07-26T23:04:37.887Z,14.04
2023-07-26T23:07:04.735Z,13.86
2023-07-26T23:09:31.237Z,13.40
2023-07-26T23:11:58.003Z,13.53
2023-07-26T23:14:24.932Z,13.56
2023-07-26T23:16:51.467Z,13.70
2023-07-26T23:19:18.752Z,13.37
2023-07-26T23:21:45.360Z,13.56
2023-07-26T23:24:11.881Z,13.62
2023-07-26T23:26:38.379Z,13.47
2023-07-26T23:29:04.875Z,13.78
2023-07-26T23:31:31.494Z,13.67
2023-07-26T23:33:58.062Z,13.33
2023-07-26T23:36:24.547Z,13.41
2023-07-26T23:38:51.064Z,13.49
2023-07-26T23:41:17.581Z,13.52
2023-07-26T23:43:44.115Z,13.26
2023-07-26T23:46:10.640Z,13.18
2023-07-26T23:48:37.134Z,13.00
2023-07-26T23:51:03.681Z,13.14
2023-07-26T23:53:30.210Z,13.41
2023-07-26T23:55:56.724Z,13.26
2023-07-26T23:58:23.192Z,13.37
